KTPL/TPL METAR and TAF weather

Enter ICAO airport designator
Station Type Date Time Source
KTPL METAR 2020/06/06 00:51 UTC NOAA

KTPL 060051Z AUTO 14007KT 10SM FEW055 31/21 A2992 RMK AO2 SLP120 T03110206


Station Type Date Time Source
KTPL Decoded METAR 2020/06/06 00:51 UTC NOAA

Temple, Draughon-Miller Central Texas Regional Airport, TX, United States (KTPL) 31-09N 097-24W
Jun 05, 2020 - 08:51 PM EDT / 2020.06.06 0051 UTC
Wind: from the SE (140 degrees) at 8 MPH (7 KT):0
Visibility: 10 mile(s):0
Sky conditions: mostly clear
Temperature: 88.0 F (31.1 C)
Dew Point: 69.1 F (20.6 C)
Relative Humidity: 53%
Pressure (altimeter): 29.92 in. Hg (1013 hPa)
ob: KTPL 060051Z AUTO 14007KT 10SM FEW055 31/21 A2992 RMK AO2 SLP120 T03110206
cycle: 1

Station Type Date Time Source
KTPL TAF UTC NOAA

Error!

Example: see airport list